sensor_id;sensor_type;location;lat;lon;timestamp;temperature;humidity
41437;DHT22;27178;49.460;10.850;2024-03-08T00:00:18;6.10;68.70
41437;DHT22;27178;49.460;10.850;2024-03-08T00:02:48;6.10;68.80
41437;DHT22;27178;49.460;10.850;2024-03-08T00:05:18;6.10;68.80
41437;DHT22;27178;49.460;10.850;2024-03-08T00:07:46;6.10;68.60
41437;DHT22;27178;49.460;10.850;2024-03-08T00:10:14;6.10;68.70
41437;DHT22;27178;49.460;10.850;2024-03-08T00:12:44;6.10;68.80
41437;DHT22;27178;49.460;10.850;2024-03-08T00:15:16;6.10;68.90
41437;DHT22;27178;49.460;10.850;2024-03-08T00:17:47;6.00;69.00
41437;DHT22;27178;49.460;10.850;2024-03-08T00:20:16;6.00;69.10
41437;DHT22;27178;49.460;10.850;2024-03-08T00:22:46;6.00;69.10
41437;DHT22;27178;49.460;10.850;2024-03-08T00:25:14;6.00;69.30
41437;DHT22;27178;49.460;10.850;2024-03-08T00:27:43;6.00;69.20
41437;DHT22;27178;49.460;10.850;2024-03-08T00:30:12;6.00;69.30
41437;DHT22;27178;49.460;10.850;2024-03-08T00:32:41;6.00;69.40
41437;DHT22;27178;49.460;10.850;2024-03-08T00:35:11;6.00;69.40
41437;DHT22;27178;49.460;10.850;2024-03-08T00:37:39;5.90;69.50
41437;DHT22;27178;49.460;10.850;2024-03-08T00:40:09;5.90;69.50
41437;DHT22;27178;49.460;10.850;2024-03-08T00:42:38;5.90;69.70
41437;DHT22;27178;49.460;10.850;2024-03-08T00:45:07;5.90;69.80
41437;DHT22;27178;49.460;10.850;2024-03-08T00:47:38;5.90;69.90
41437;DHT22;27178;49.460;10.850;2024-03-08T00:50:07;5.90;70.00
41437;DHT22;27178;49.460;10.850;2024-03-08T00:52:37;5.80;70.00
41437;DHT22;27178;49.460;10.850;2024-03-08T00:55:05;5.90;70.10
41437;DHT22;27178;49.460;10.850;2024-03-08T00:57:35;5.80;70.20
41437;DHT22;27178;49.460;10.850;2024-03-08T01:00:04;5.80;70.10
41437;DHT22;27178;49.460;10.850;2024-03-08T01:02:36;5.80;71.00
41437;DHT22;27178;49.460;10.850;2024-03-08T01:05:05;5.80;70.10
41437;DHT22;27178;49.460;10.850;2024-03-08T01:07:34;5.80;70.20
41437;DHT22;27178;49.460;10.850;2024-03-08T01:10:06;5.80;70.30
41437;DHT22;27178;49.460;10.850;2024-03-08T01:12:36;5.80;70.40
41437;DHT22;27178;49.460;10.850;2024-03-08T01:15:06;5.80;70.20
41437;DHT22;27178;49.460;10.850;2024-03-08T01:17:34;5.80;70.20
41437;DHT22;27178;49.460;10.850;2024-03-08T01:20:04;5.80;70.20
41437;DHT22;27178;49.460;10.850;2024-03-08T01:22:32;5.80;70.40
41437;DHT22;27178;49.460;10.850;2024-03-08T01:25:01;5.80;70.40
41437;DHT22;27178;49.460;10.850;2024-03-08T01:27:33;5.80;70.40
41437;DHT22;27178;49.460;10.850;2024-03-08T01:30:02;5.70;70.30
41437;DHT22;27178;49.460;10.850;2024-03-08T01:32:31;5.70;70.40
41437;DHT22;27178;49.460;10.850;2024-03-08T01:35:00;5.70;70.40
41437;DHT22;27178;49.460;10.850;2024-03-08T01:37:30;5.70;70.40
41437;DHT22;27178;49.460;10.850;2024-03-08T01:39:58;5.70;70.60
41437;DHT22;27178;49.460;10.850;2024-03-08T01:42:26;5.70;70.60
41437;DHT22;27178;49.460;10.850;2024-03-08T01:44:56;5.60;70.70
41437;DHT22;27178;49.460;10.850;2024-03-08T01:47:25;5.60;70.80
41437;DHT22;27178;49.460;10.850;2024-03-08T01:49:53;5.60;71.00
41437;DHT22;27178;49.460;10.850;2024-03-08T01:52:22;5.60;71.10
41437;DHT22;27178;49.460;10.850;2024-03-08T01:54:52;5.60;71.20
41437;DHT22;27178;49.460;10.850;2024-03-08T01:57:20;5.60;71.30
41437;DHT22;27178;49.460;10.850;2024-03-08T01:59:50;5.60;71.30
41437;DHT22;27178;49.460;10.850;2024-03-08T02:02:23;5.60;71.40
41437;DHT22;27178;49.460;10.850;2024-03-08T02:04:51;5.60;71.40
41437;DHT22;27178;49.460;10.850;2024-03-08T02:07:20;5.60;71.50
41437;DHT22;27178;49.460;10.850;2024-03-08T02:09:49;5.60;71.70
41437;DHT22;27178;49.460;10.850;2024-03-08T02:12:18;5.60;71.70
41437;DHT22;27178;49.460;10.850;2024-03-08T02:14:48;5.60;71.70
41437;DHT22;27178;49.460;10.850;2024-03-08T02:17:16;5.50;71.60
41437;DHT22;27178;49.460;10.850;2024-03-08T02:19:46;5.60;71.70
41437;DHT22;27178;49.460;10.850;2024-03-08T02:22:16;5.60;71.70
41437;DHT22;27178;49.460;10.850;2024-03-08T02:24:45;5.60;71.70
41437;DHT22;27178;49.460;10.850;2024-03-08T02:27:13;5.60;71.70
41437;DHT22;27178;49.460;10.850;2024-03-08T02:29:42;5.50;71.60
41437;DHT22;27178;49.460;10.850;2024-03-08T02:32:12;5.50;71.70
41437;DHT22;27178;49.460;10.850;2024-03-08T02:34:40;5.50;71.70
41437;DHT22;27178;49.460;10.850;2024-03-08T02:37:08;5.50;71.80
41437;DHT22;27178;49.460;10.850;2024-03-08T02:39:40;5.50;71.80
41437;DHT22;27178;49.460;10.850;2024-03-08T02:42:08;5.50;71.90
41437;DHT22;27178;49.460;10.850;2024-03-08T02:44:37;5.50;71.90
41437;DHT22;27178;49.460;10.850;2024-03-08T02:47:05;5.50;71.90
41437;DHT22;27178;49.460;10.850;2024-03-08T02:49:34;5.40;72.00
41437;DHT22;27178;49.460;10.850;2024-03-08T02:52:04;5.50;71.90
41437;DHT22;27178;49.460;10.850;2024-03-08T02:54:33;5.50;72.00
41437;DHT22;27178;49.460;10.850;2024-03-08T02:57:05;5.40;72.00
41437;DHT22;27178;49.460;10.850;2024-03-08T02:59:34;5.40;72.00
41437;DHT22;27178;49.460;10.850;2024-03-08T03:02:06;5.40;72.10
41437;DHT22;27178;49.460;10.850;2024-03-08T03:04:39;5.40;72.00
41437;DHT22;27178;49.460;10.850;2024-03-08T03:07:07;5.40;71.90
41437;DHT22;27178;49.460;10.850;2024-03-08T03:09:35;5.40;71.90
41437;DHT22;27178;49.460;10.850;2024-03-08T03:12:05;5.40;71.90
41437;DHT22;27178;49.460;10.850;2024-03-08T03:14:36;5.40;72.00
41437;DHT22;27178;49.460;10.850;2024-03-08T03:17:05;5.40;71.90
41437;DHT22;27178;49.460;10.850;2024-03-08T03:19:33;5.40;71.90
41437;DHT22;27178;49.460;10.850;2024-03-08T03:22:03;5.40;71.80
41437;DHT22;27178;49.460;10.850;2024-03-08T03:24:33;5.40;71.80
41437;DHT22;27178;49.460;10.850;2024-03-08T03:27:01;5.30;71.70
41437;DHT22;27178;49.460;10.850;2024-03-08T03:29:39;5.30;71.90
41437;DHT22;27178;49.460;10.850;2024-03-08T03:32:09;5.30;71.90
41437;DHT22;27178;49.460;10.850;2024-03-08T03:34:39;5.30;72.00
41437;DHT22;27178;49.460;10.850;2024-03-08T03:37:07;5.20;72.10
41437;DHT22;27178;49.460;10.850;2024-03-08T03:39:39;5.10;72.00
41437;DHT22;27178;49.460;10.850;2024-03-08T03:42:15;5.20;72.10
41437;DHT22;27178;49.460;10.850;2024-03-08T03:44:46;5.10;72.30
41437;DHT22;27178;49.460;10.850;2024-03-08T03:47:15;5.10;72.50
41437;DHT22;27178;49.460;10.850;2024-03-08T03:49:44;5.10;72.60
41437;DHT22;27178;49.460;10.850;2024-03-08T03:52:12;5.10;72.80
41437;DHT22;27178;49.460;10.850;2024-03-08T03:54:42;5.10;72.80
41437;DHT22;27178;49.460;10.850;2024-03-08T03:57:10;5.10;72.80
41437;DHT22;27178;49.460;10.850;2024-03-08T03:59:40;5.10;72.80
41437;DHT22;27178;49.460;10.850;2024-03-08T04:02:10;5.00;73.00
41437;DHT22;27178;49.460;10.850;2024-03-08T04:04:39;5.00;73.00
41437;DHT22;27178;49.460;10.850;2024-03-08T04:07:07;5.00;73.00
41437;DHT22;27178;49.460;10.850;2024-03-08T04:09:36;5.00;72.90
41437;DHT22;27178;49.460;10.850;2024-03-08T04:12:05;5.00;73.10
41437;DHT22;27178;49.460;10.850;2024-03-08T04:14:34;5.00;73.20
41437;DHT22;27178;49.460;10.850;2024-03-08T04:17:02;5.00;73.00
41437;DHT22;27178;49.460;10.850;2024-03-08T04:19:32;5.00;73.00
41437;DHT22;27178;49.460;10.850;2024-03-08T04:22:01;5.00;73.30
41437;DHT22;27178;49.460;10.850;2024-03-08T04:24:29;5.00;73.20
41437;DHT22;27178;49.460;10.850;2024-03-08T04:26:58;5.00;73.30
41437;DHT22;27178;49.460;10.850;2024-03-08T04:29:26;5.00;73.30
41437;DHT22;27178;49.460;10.850;2024-03-08T04:31:55;5.00;73.30
41437;DHT22;27178;49.460;10.850;2024-03-08T04:34:23;5.00;73.30
41437;DHT22;27178;49.460;10.850;2024-03-08T04:36:53;5.00;73.20
41437;DHT22;27178;49.460;10.850;2024-03-08T04:39:21;5.00;73.20
41437;DHT22;27178;49.460;10.850;2024-03-08T04:41:50;4.90;73.20
41437;DHT22;27178;49.460;10.850;2024-03-08T04:44:19;4.90;73.20
41437;DHT22;27178;49.460;10.850;2024-03-08T04:46:47;4.90;73.20
41437;DHT22;27178;49.460;10.850;2024-03-08T04:49:16;5.00;73.30
41437;DHT22;27178;49.460;10.850;2024-03-08T04:51:44;5.00;73.30
41437;DHT22;27178;49.460;10.850;2024-03-08T04:54:14;5.00;73.20
41437;DHT22;27178;49.460;10.850;2024-03-08T04:56:42;4.90;73.20
41437;DHT22;27178;49.460;10.850;2024-03-08T04:59:11;5.00;73.30
41437;DHT22;27178;49.460;10.850;2024-03-08T05:01:39;4.90;73.10
41437;DHT22;27178;49.460;10.850;2024-03-08T05:04:07;4.90;73.10
41437;DHT22;27178;49.460;10.850;2024-03-08T05:06:36;4.90;73.10
41437;DHT22;27178;49.460;10.850;2024-03-08T05:09:04;4.90;73.20
41437;DHT22;27178;49.460;10.850;2024-03-08T05:11:43;4.90;73.20
41437;DHT22;27178;49.460;10.850;2024-03-08T05:14:12;4.90;73.30
41437;DHT22;27178;49.460;10.850;2024-03-08T05:16:44;5.50;73.70
41437;DHT22;27178;49.460;10.850;2024-03-08T05:19:16;4.90;73.30
41437;DHT22;27178;49.460;10.850;2024-03-08T05:21:44;4.90;73.30
41437;DHT22;27178;49.460;10.850;2024-03-08T05:24:13;4.80;73.30
41437;DHT22;27178;49.460;10.850;2024-03-08T05:26:44;4.80;73.30
41437;DHT22;27178;49.460;10.850;2024-03-08T05:29:12;4.80;73.40
41437;DHT22;27178;49.460;10.850;2024-03-08T05:31:46;3.80;72.70
41437;DHT22;27178;49.460;10.850;2024-03-08T05:34:14;4.80;73.60
41437;DHT22;27178;49.460;10.850;2024-03-08T05:36:43;4.80;73.60
41437;DHT22;27178;49.460;10.850;2024-03-08T05:39:13;4.80;73.50
41437;DHT22;27178;49.460;10.850;2024-03-08T05:41:43;4.80;73.50
41437;DHT22;27178;49.460;10.850;2024-03-08T05:44:13;4.80;73.50
41437;DHT22;27178;49.460;10.850;2024-03-08T05:46:41;4.80;73.50
41437;DHT22;27178;49.460;10.850;2024-03-08T05:49:09;4.80;73.40
41437;DHT22;27178;49.460;10.850;2024-03-08T05:51:40;4.80;73.40
41437;DHT22;27178;49.460;10.850;2024-03-08T05:54:10;4.80;73.40
41437;DHT22;27178;49.460;10.850;2024-03-08T05:56:43;4.80;73.40
41437;DHT22;27178;49.460;10.850;2024-03-08T05:59:12;4.70;73.20
41437;DHT22;27178;49.460;10.850;2024-03-08T06:01:40;4.70;73.20
41437;DHT22;27178;49.460;10.850;2024-03-08T06:04:09;4.70;73.20
41437;DHT22;27178;49.460;10.850;2024-03-08T06:06:39;4.60;73.40
41437;DHT22;27178;49.460;10.850;2024-03-08T06:09:08;4.60;73.50
41437;DHT22;27178;49.460;10.850;2024-03-08T06:11:39;4.60;74.50
41437;DHT22;27178;49.460;10.850;2024-03-08T06:14:09;4.60;73.80
41437;DHT22;27178;49.460;10.850;2024-03-08T06:16:38;4.50;74.00
41437;DHT22;27178;49.460;10.850;2024-03-08T06:19:06;4.50;74.20
41437;DHT22;27178;49.460;10.850;2024-03-08T06:21:34;4.50;74.40
41437;DHT22;27178;49.460;10.850;2024-03-08T06:24:03;4.50;74.40
41437;DHT22;27178;49.460;10.850;2024-03-08T06:26:31;4.50;74.60
41437;DHT22;27178;49.460;10.850;2024-03-08T06:29:02;4.50;74.60
41437;DHT22;27178;49.460;10.850;2024-03-08T06:31:35;4.60;74.60
41437;DHT22;27178;49.460;10.850;2024-03-08T06:34:06;4.60;74.80
41437;DHT22;27178;49.460;10.850;2024-03-08T06:36:36;4.60;74.80
41437;DHT22;27178;49.460;10.850;2024-03-08T06:39:05;4.60;74.70
41437;DHT22;27178;49.460;10.850;2024-03-08T06:41:37;4.60;74.80
41437;DHT22;27178;49.460;10.850;2024-03-08T06:44:05;4.60;74.80
41437;DHT22;27178;49.460;10.850;2024-03-08T06:46:36;4.60;74.80
41437;DHT22;27178;49.460;10.850;2024-03-08T06:49:05;4.70;75.00
41437;DHT22;27178;49.460;10.850;2024-03-08T06:51:34;4.70;75.10
41437;DHT22;27178;49.460;10.850;2024-03-08T06:54:03;4.70;75.10
41437;DHT22;27178;49.460;10.850;2024-03-08T06:56:36;4.70;75.00
41437;DHT22;27178;49.460;10.850;2024-03-08T06:59:05;4.80;75.00
41437;DHT22;27178;49.460;10.850;2024-03-08T07:01:33;4.80;75.10
41437;DHT22;27178;49.460;10.850;2024-03-08T07:04:05;4.80;75.20
41437;DHT22;27178;49.460;10.850;2024-03-08T07:06:33;4.80;75.20
41437;DHT22;27178;49.460;10.850;2024-03-08T07:09:01;4.80;75.20
41437;DHT22;27178;49.460;10.850;2024-03-08T07:11:30;4.80;75.40
41437;DHT22;27178;49.460;10.850;2024-03-08T07:13:58;4.90;75.50
41437;DHT22;27178;49.460;10.850;2024-03-08T07:16:33;4.90;75.50
41437;DHT22;27178;49.460;10.850;2024-03-08T07:19:02;4.90;75.50
41437;DHT22;27178;49.460;10.850;2024-03-08T07:21:33;4.90;75.40
41437;DHT22;27178;49.460;10.850;2024-03-08T07:24:01;5.00;75.60
41437;DHT22;27178;49.460;10.850;2024-03-08T07:26:51;5.00;75.80
41437;DHT22;27178;49.460;10.850;2024-03-08T07:29:20;5.00;75.60
41437;DHT22;27178;49.460;10.850;2024-03-08T07:31:48;5.10;76.70
41437;DHT22;27178;49.460;10.850;2024-03-08T07:34:27;5.10;75.70
41437;DHT22;27178;49.460;10.850;2024-03-08T07:37:00;5.10;75.40
41437;DHT22;27178;49.460;10.850;2024-03-08T07:39:33;5.10;75.50
41437;DHT22;27178;49.460;10.850;2024-03-08T07:42:07;5.10;75.60
41437;DHT22;27178;49.460;10.850;2024-03-08T07:44:37;5.10;75.60
41437;DHT22;27178;49.460;10.850;2024-03-08T07:47:05;5.20;75.70
41437;DHT22;27178;49.460;10.850;2024-03-08T07:49:36;5.20;75.80
41437;DHT22;27178;49.460;10.850;2024-03-08T07:52:06;5.20;75.80
41437;DHT22;27178;49.460;10.850;2024-03-08T07:54:34;5.30;76.00
41437;DHT22;27178;49.460;10.850;2024-03-08T07:57:03;5.30;75.90
41437;DHT22;27178;49.460;10.850;2024-03-08T07:59:31;5.40;76.00
41437;DHT22;27178;49.460;10.850;2024-03-08T08:01:59;5.40;76.30
41437;DHT22;27178;49.460;10.850;2024-03-08T08:04:28;5.40;76.30
41437;DHT22;27178;49.460;10.850;2024-03-08T08:06:56;5.50;76.50
41437;DHT22;27178;49.460;10.850;2024-03-08T08:09:26;5.50;76.60
41437;DHT22;27178;49.460;10.850;2024-03-08T08:12:01;5.60;77.00
41437;DHT22;27178;49.460;10.850;2024-03-08T08:14:30;5.60;76.60
41437;DHT22;27178;49.460;10.850;2024-03-08T08:16:58;5.70;76.70
41437;DHT22;27178;49.460;10.850;2024-03-08T08:19:30;5.70;76.60
41437;DHT22;27178;49.460;10.850;2024-03-08T08:22:00;5.70;76.70
41437;DHT22;27178;49.460;10.850;2024-03-08T08:24:30;5.80;76.70
41437;DHT22;27178;49.460;10.850;2024-03-08T08:26:58;5.80;76.60
41437;DHT22;27178;49.460;10.850;2024-03-08T08:29:28;5.90;76.40
41437;DHT22;27178;49.460;10.850;2024-03-08T08:31:57;5.90;76.50
41437;DHT22;27178;49.460;10.850;2024-03-08T08:34:29;6.00;76.50
41437;DHT22;27178;49.460;10.850;2024-03-08T08:36:58;6.00;76.50
41437;DHT22;27178;49.460;10.850;2024-03-08T08:39:26;6.10;76.30
41437;DHT22;27178;49.460;10.850;2024-03-08T08:41:56;6.10;76.30
41437;DHT22;27178;49.460;10.850;2024-03-08T08:44:24;6.20;76.30
41437;DHT22;27178;49.460;10.850;2024-03-08T08:46:54;6.20;76.30
41437;DHT22;27178;49.460;10.850;2024-03-08T08:49:32;6.30;76.30
41437;DHT22;27178;49.460;10.850;2024-03-08T08:52:00;6.40;76.30
41437;DHT22;27178;49.460;10.850;2024-03-08T08:54:42;6.40;76.20
41437;DHT22;27178;49.460;10.850;2024-03-08T08:57:16;6.50;76.30
41437;DHT22;27178;49.460;10.850;2024-03-08T08:59:45;6.60;76.30
41437;DHT22;27178;49.460;10.850;2024-03-08T09:02:13;6.60;76.10
41437;DHT22;27178;49.460;10.850;2024-03-08T09:04:44;6.70;76.00
41437;DHT22;27178;49.460;10.850;2024-03-08T09:07:13;6.80;75.90
41437;DHT22;27178;49.460;10.850;2024-03-08T09:09:42;6.80;75.90
41437;DHT22;27178;49.460;10.850;2024-03-08T09:12:10;6.90;75.80
41437;DHT22;27178;49.460;10.850;2024-03-08T09:14:42;7.00;75.70
41437;DHT22;27178;49.460;10.850;2024-03-08T09:17:11;7.10;75.50
41437;DHT22;27178;49.460;10.850;2024-03-08T09:19:44;7.10;75.30
41437;DHT22;27178;49.460;10.850;2024-03-08T09:22:13;7.20;75.10
41437;DHT22;27178;49.460;10.850;2024-03-08T09:24:41;7.30;75.00
41437;DHT22;27178;49.460;10.850;2024-03-08T09:27:10;7.40;74.90
41437;DHT22;27178;49.460;10.850;2024-03-08T09:29:38;7.40;74.80
41437;DHT22;27178;49.460;10.850;2024-03-08T09:32:08;7.50;74.60
41437;DHT22;27178;49.460;10.850;2024-03-08T09:34:38;7.60;74.60
41437;DHT22;27178;49.460;10.850;2024-03-08T09:37:07;7.70;74.50
41437;DHT22;27178;49.460;10.850;2024-03-08T09:39:36;7.70;74.40
41437;DHT22;27178;49.460;10.850;2024-03-08T09:42:05;7.80;74.10
41437;DHT22;27178;49.460;10.850;2024-03-08T09:44:34;7.90;73.90
41437;DHT22;27178;49.460;10.850;2024-03-08T09:47:03;7.90;73.60
41437;DHT22;27178;49.460;10.850;2024-03-08T09:49:35;8.00;73.50
41437;DHT22;27178;49.460;10.850;2024-03-08T09:52:05;8.10;73.30
41437;DHT22;27178;49.460;10.850;2024-03-08T09:54:34;8.10;73.10
41437;DHT22;27178;49.460;10.850;2024-03-08T09:57:04;8.20;72.90
41437;DHT22;27178;49.460;10.850;2024-03-08T09:59:32;8.30;72.70
41437;DHT22;27178;49.460;10.850;2024-03-08T10:02:15;8.30;72.50
41437;DHT22;27178;49.460;10.850;2024-03-08T10:04:45;8.40;72.50
41437;DHT22;27178;49.460;10.850;2024-03-08T10:07:14;8.40;72.40
41437;DHT22;27178;49.460;10.850;2024-03-08T10:09:43;8.50;72.30
41437;DHT22;27178;49.460;10.850;2024-03-08T10:12:17;8.60;72.10
41437;DHT22;27178;49.460;10.850;2024-03-08T10:14:46;8.60;71.80
41437;DHT22;27178;49.460;10.850;2024-03-08T10:17:14;8.70;71.90
41437;DHT22;27178;49.460;10.850;2024-03-08T10:19:51;8.70;71.70
41437;DHT22;27178;49.460;10.850;2024-03-08T10:22:20;8.80;71.50
41437;DHT22;27178;49.460;10.850;2024-03-08T10:24:49;8.90;71.70
41437;DHT22;27178;49.460;10.850;2024-03-08T10:27:17;9.00;71.50
41437;DHT22;27178;49.460;10.850;2024-03-08T10:29:47;9.00;71.50
41437;DHT22;27178;49.460;10.850;2024-03-08T10:32:16;9.10;71.40
41437;DHT22;27178;49.460;10.850;2024-03-08T10:34:44;9.20;71.30
41437;DHT22;27178;49.460;10.850;2024-03-08T10:37:16;9.30;71.30
41437;DHT22;27178;49.460;10.850;2024-03-08T10:40:03;9.40;70.80
41437;DHT22;27178;49.460;10.850;2024-03-08T10:42:40;9.50;70.80
41437;DHT22;27178;49.460;10.850;2024-03-08T10:45:14;9.60;70.40
41437;DHT22;27178;49.460;10.850;2024-03-08T10:47:45;9.70;70.50
41437;DHT22;27178;49.460;10.850;2024-03-08T10:50:19;9.80;70.60
41437;DHT22;27178;49.460;10.850;2024-03-08T10:52:51;9.90;70.20
41437;DHT22;27178;49.460;10.850;2024-03-08T10:55:21;10.00;70.20
41437;DHT22;27178;49.460;10.850;2024-03-08T10:57:49;10.10;69.90
41437;DHT22;27178;49.460;10.850;2024-03-08T11:00:18;10.20;69.70
41437;DHT22;27178;49.460;10.850;2024-03-08T11:02:54;10.30;70.50
41437;DHT22;27178;49.460;10.850;2024-03-08T11:05:32;10.40;69.10
41437;DHT22;27178;49.460;10.850;2024-03-08T11:08:17;10.50;69.10
41437;DHT22;27178;49.460;10.850;2024-03-08T11:10:49;10.60;68.20
41437;DHT22;27178;49.460;10.850;2024-03-08T11:13:35;10.80;68.90
41437;DHT22;27178;49.460;10.850;2024-03-08T11:16:07;10.80;67.00
41437;DHT22;27178;49.460;10.850;2024-03-08T11:18:36;11.00;68.00
41437;DHT22;27178;49.460;10.850;2024-03-08T11:21:08;11.10;67.40
41437;DHT22;27178;49.460;10.850;2024-03-08T11:23:41;11.20;67.50
41437;DHT22;27178;49.460;10.850;2024-03-08T11:26:19;11.30;67.50
41437;DHT22;27178;49.460;10.850;2024-03-08T11:28:48;11.40;66.70
41437;DHT22;27178;49.460;10.850;2024-03-08T11:31:23;11.50;66.40
41437;DHT22;27178;49.460;10.850;2024-03-08T11:33:53;11.60;66.60
41437;DHT22;27178;49.460;10.850;2024-03-08T11:36:23;11.70;66.90
41437;DHT22;27178;49.460;10.850;2024-03-08T11:38:53;11.80;66.10
41437;DHT22;27178;49.460;10.850;2024-03-08T11:41:23;11.90;66.00
41437;DHT22;27178;49.460;10.850;2024-03-08T11:44:02;12.10;66.60
41437;DHT22;27178;49.460;10.850;2024-03-08T11:46:32;12.20;65.20
41437;DHT22;27178;49.460;10.850;2024-03-08T11:49:00;12.30;65.60
41437;DHT22;27178;49.460;10.850;2024-03-08T11:51:30;12.40;66.10
41437;DHT22;27178;49.460;10.850;2024-03-08T11:54:01;12.60;65.90
41437;DHT22;27178;49.460;10.850;2024-03-08T11:56:30;12.60;64.00
41437;DHT22;27178;49.460;10.850;2024-03-08T11:58:59;12.80;65.00
41437;DHT22;27178;49.460;10.850;2024-03-08T12:01:28;12.90;65.40
41437;DHT22;27178;49.460;10.850;2024-03-08T12:03:59;13.10;64.60
41437;DHT22;27178;49.460;10.850;2024-03-08T12:06:36;13.20;64.90
41437;DHT22;27178;49.460;10.850;2024-03-08T12:09:11;13.30;63.90
41437;DHT22;27178;49.460;10.850;2024-03-08T12:11:40;13.50;63.90
41437;DHT22;27178;49.460;10.850;2024-03-08T12:14:10;13.60;64.20
41437;DHT22;27178;49.460;10.850;2024-03-08T12:16:38;13.70;64.10
41437;DHT22;27178;49.460;10.850;2024-03-08T12:19:07;13.80;63.00
41437;DHT22;27178;49.460;10.850;2024-03-08T12:21:36;13.90;62.90
41437;DHT22;27178;49.460;10.850;2024-03-08T12:24:06;14.00;61.80
41437;DHT22;27178;49.460;10.850;2024-03-08T12:26:38;14.20;62.50
41437;DHT22;27178;49.460;10.850;2024-03-08T12:29:18;14.30;61.50
41437;DHT22;27178;49.460;10.850;2024-03-08T12:31:52;14.40;59.80
41437;DHT22;27178;49.460;10.850;2024-03-08T12:34:21;14.50;60.20
41437;DHT22;27178;49.460;10.850;2024-03-08T12:36:50;14.60;60.20
41437;DHT22;27178;49.460;10.850;2024-03-08T12:39:22;14.70;60.20
41437;DHT22;27178;49.460;10.850;2024-03-08T12:41:56;14.90;59.50
41437;DHT22;27178;49.460;10.850;2024-03-08T12:44:26;15.00;58.80
41437;DHT22;27178;49.460;10.850;2024-03-08T12:46:56;15.10;60.00
41437;DHT22;27178;49.460;10.850;2024-03-08T12:49:26;15.30;59.90
41437;DHT22;27178;49.460;10.850;2024-03-08T12:51:55;15.40;59.90
41437;DHT22;27178;49.460;10.850;2024-03-08T12:54:23;15.50;58.00
41437;DHT22;27178;49.460;10.850;2024-03-08T12:56:52;15.60;57.00
41437;DHT22;27178;49.460;10.850;2024-03-08T12:59:23;15.70;56.80
41437;DHT22;27178;49.460;10.850;2024-03-08T13:01:52;15.80;55.70
41437;DHT22;27178;49.460;10.850;2024-03-08T13:04:21;15.90;56.40
41437;DHT22;27178;49.460;10.850;2024-03-08T13:06:50;16.00;56.80
41437;DHT22;27178;49.460;10.850;2024-03-08T13:09:21;16.10;56.40
41437;DHT22;27178;49.460;10.850;2024-03-08T13:11:51;16.20;56.90
41437;DHT22;27178;49.460;10.850;2024-03-08T13:14:22;16.30;57.20
41437;DHT22;27178;49.460;10.850;2024-03-08T13:16:50;16.40;57.70
41437;DHT22;27178;49.460;10.850;2024-03-08T13:19:19;16.60;56.50
41437;DHT22;27178;49.460;10.850;2024-03-08T13:21:49;16.70;56.20
41437;DHT22;27178;49.460;10.850;2024-03-08T13:24:18;16.80;57.10
41437;DHT22;27178;49.460;10.850;2024-03-08T13:26:47;17.00;56.10
41437;DHT22;27178;49.460;10.850;2024-03-08T13:29:17;17.10;56.10
41437;DHT22;27178;49.460;10.850;2024-03-08T13:31:47;17.20;55.50
41437;DHT22;27178;49.460;10.850;2024-03-08T13:34:19;17.30;56.00
41437;DHT22;27178;49.460;10.850;2024-03-08T13:36:55;17.50;56.00
41437;DHT22;27178;49.460;10.850;2024-03-08T13:39:28;17.60;55.00
41437;DHT22;27178;49.460;10.850;2024-03-08T13:42:01;17.70;54.50
41437;DHT22;27178;49.460;10.850;2024-03-08T13:44:32;17.90;54.20
41437;DHT22;27178;49.460;10.850;2024-03-08T13:47:01;18.00;55.10
41437;DHT22;27178;49.460;10.850;2024-03-08T13:49:31;18.10;53.80
41437;DHT22;27178;49.460;10.850;2024-03-08T13:52:00;18.30;53.80
41437;DHT22;27178;49.460;10.850;2024-03-08T13:54:28;18.40;54.60
41437;DHT22;27178;49.460;10.850;2024-03-08T13:56:58;18.50;53.50
41437;DHT22;27178;49.460;10.850;2024-03-08T13:59:27;18.60;54.40
41437;DHT22;27178;49.460;10.850;2024-03-08T14:01:56;18.70;54.40
41437;DHT22;27178;49.460;10.850;2024-03-08T14:04:28;18.90;54.10
41437;DHT22;27178;49.460;10.850;2024-03-08T14:06:56;19.00;52.80
41437;DHT22;27178;49.460;10.850;2024-03-08T14:09:30;19.20;52.90
41437;DHT22;27178;49.460;10.850;2024-03-08T14:11:59;19.30;52.60
41437;DHT22;27178;49.460;10.850;2024-03-08T14:14:27;19.30;53.10
41437;DHT22;27178;49.460;10.850;2024-03-08T14:16:55;19.50;52.60
41437;DHT22;27178;49.460;10.850;2024-03-08T14:19:25;19.50;52.70
41437;DHT22;27178;49.460;10.850;2024-03-08T14:21:55;19.70;51.80
41437;DHT22;27178;49.460;10.850;2024-03-08T14:24:23;19.80;52.20
41437;DHT22;27178;49.460;10.850;2024-03-08T14:26:51;19.90;52.00
41437;DHT22;27178;49.460;10.850;2024-03-08T14:29:20;20.00;52.00
41437;DHT22;27178;49.460;10.850;2024-03-08T14:31:49;20.10;51.60
41437;DHT22;27178;49.460;10.850;2024-03-08T14:34:17;20.20;52.00
41437;DHT22;27178;49.460;10.850;2024-03-08T14:36:47;20.30;51.90
41437;DHT22;27178;49.460;10.850;2024-03-08T14:39:17;20.40;52.10
41437;DHT22;27178;49.460;10.850;2024-03-08T14:41:48;20.50;52.20
41437;DHT22;27178;49.460;10.850;2024-03-08T14:44:20;20.60;51.30
41437;DHT22;27178;49.460;10.850;2024-03-08T14:46:52;20.80;51.50
41437;DHT22;27178;49.460;10.850;2024-03-08T14:49:21;20.90;50.80
41437;DHT22;27178;49.460;10.850;2024-03-08T14:51:49;20.90;50.30
41437;DHT22;27178;49.460;10.850;2024-03-08T14:54:18;21.10;51.10
41437;DHT22;27178;49.460;10.850;2024-03-08T14:56:49;21.20;49.60
41437;DHT22;27178;49.460;10.850;2024-03-08T14:59:18;21.20;49.80
41437;DHT22;27178;49.460;10.850;2024-03-08T15:01:46;21.30;49.50
41437;DHT22;27178;49.460;10.850;2024-03-08T15:04:15;21.40;48.60
41437;DHT22;27178;49.460;10.850;2024-03-08T15:06:45;21.40;49.10
41437;DHT22;27178;49.460;10.850;2024-03-08T15:09:19;21.40;48.20
41437;DHT22;27178;49.460;10.850;2024-03-08T15:11:48;21.40;48.20
41437;DHT22;27178;49.460;10.850;2024-03-08T15:14:17;21.50;49.60
41437;DHT22;27178;49.460;10.850;2024-03-08T15:16:46;21.50;48.40
41437;DHT22;27178;49.460;10.850;2024-03-08T15:19:15;21.60;49.00
41437;DHT22;27178;49.460;10.850;2024-03-08T15:21:46;21.60;47.40
41437;DHT22;27178;49.460;10.850;2024-03-08T15:24:15;21.60;47.40
41437;DHT22;27178;49.460;10.850;2024-03-08T15:26:49;21.60;47.20
41437;DHT22;27178;49.460;10.850;2024-03-08T15:29:22;21.60;46.70
41437;DHT22;27178;49.460;10.850;2024-03-08T15:31:53;21.50;47.30
41437;DHT22;27178;49.460;10.850;2024-03-08T15:34:22;21.50;46.60
41437;DHT22;27178;49.460;10.850;2024-03-08T15:36:52;21.50;46.90
41437;DHT22;27178;49.460;10.850;2024-03-08T15:39:21;21.50;47.00
41437;DHT22;27178;49.460;10.850;2024-03-08T15:41:52;21.40;46.90
41437;DHT22;27178;49.460;10.850;2024-03-08T15:44:22;21.40;47.10